New Auburn, Minnesota
Current Conditions -  °F | °C
As of 11:34 PM on Monday 26 Jan 2015 (Local Time) from KGYL Reporting Station
Overcast Overcast  
Wind Chill: 31°   Ceiling: 2400
Heat Index: 35°   Visibility: 10mi
Dew Point: 32°   Wind: 5mph
Humidity: 90%   Direction: 320°NW
Pressure: 29.99"   Gusts: NA
Location:  44.67°N, 94.23°W
Report Text: KGYL 270534Z AUTO 32004KT 10SM OVC024 02/00 A2999 RMK AO2 T00150000
Loading
Personal Weather Stations






























Interactive Weather Map New forecast layout! Learn more

10-Day Weather Forecast

Advertisements
Track Severe Weather on mobile